Time;durP1;ratioP1;P1;durP2;ratioP2;P2;SDS_P1;SDS_P2;PMS_P1;PMS_P2;Temp;Humidity;BMP_temperature;BMP_pressure;BME280_temperature;BME280_humidity;BME280_pressure;Samples;Min_cycle;Max_cycle;Signal;HPM_P1;HPM_P2
2021/05/09 00:00:18;;;;;;;5.39;1.99;;;;;;;6.32;67.21;99539.76;357917;111;1961141;-72
2021/05/09 00:01:25;;;;;;;4.59;2.19;;;;;;;6.37;66.98;99540.05;327393;111;1962068;-75
2021/05/09 00:02:31;;;;;;;4.52;2.22;;;;;;;6.36;66.87;99540.25;357366;111;1962043;-72
2021/05/09 00:03:47;;;;;;;4.63;2.04;;;;;;;6.38;66.87;99547.10;309133;110;2878415;-73
2021/05/09 00:05:05;;;;;;;4.29;2.21;;;;;;;6.34;66.95;99542.27;308991;111;2134767;-73
2021/05/09 00:06:12;;;;;;;3.51;2.04;;;;;;;6.34;66.88;99548.47;362674;110;1960982;-73
2021/05/09 00:07:17;;;;;;;4.01;1.85;;;;;;;6.28;67.03;99538.47;308661;110;2230886;-72
2021/05/09 00:08:33;;;;;;;5.87;2.31;;;;;;;6.32;66.99;99544.30;329201;111;1961976;-73
2021/05/09 00:09:38;;;;;;;4.80;2.17;;;;;;;6.31;66.99;99538.10;355969;111;1961943;-73
2021/05/09 00:10:44;;;;;;;4.01;1.66;;;;;;;6.33;66.97;99540.61;354172;113;1964051;-73
2021/05/09 00:11:49;;;;;;;4.47;2.14;;;;;;;6.35;66.96;99543.92;353077;111;1961015;-71
2021/05/09 00:12:55;;;;;;;3.52;2.09;;;;;;;6.30;66.96;99538.30;352870;111;1961973;-73
2021/05/09 00:14:01;;;;;;;5.17;2.17;;;;;;;6.28;67.07;99534.95;310362;114;2661995;-74
2021/05/09 00:15:09;;;;;;;3.79;1.78;;;;;;;6.25;67.06;99543.37;326466;113;1962018;-72
2021/05/09 00:16:18;;;;;;;4.09;1.91;;;;;;;6.26;67.12;99543.17;347418;113;1961946;-73
2021/05/09 00:17:23;;;;;;;4.96;2.16;;;;;;;6.25;66.96;99541.52;347819;113;1970080;-73
2021/05/09 00:18:29;;;;;;;4.48;2.10;;;;;;;6.22;67.18;99549.08;346733;113;1965303;-73
2021/05/09 00:19:35;;;;;;;4.19;2.22;;;;;;;6.23;67.05;99542.72;316006;113;2899956;-74
2021/05/09 00:20:41;;;;;;;6.21;2.03;;;;;;;6.20;67.07;99543.08;348692;113;1962039;-73
2021/05/09 00:21:46;;;;;;;3.97;1.96;;;;;;;6.13;67.35;99545.63;349493;113;1961937;-71
2021/05/09 00:22:52;;;;;;;5.61;2.28;;;;;;;6.18;67.30;99545.10;350146;113;1962008;-73
2021/05/09 00:23:58;;;;;;;4.79;2.17;;;;;;;6.14;67.21;99547.32;349688;113;1961958;-73
2021/05/09 00:25:06;;;;;;;4.65;2.39;;;;;;;6.10;67.56;99546.83;310490;113;2683029;-73
2021/05/09 00:26:11;;;;;;;5.71;2.27;;;;;;;6.10;67.51;99546.00;349353;113;1961991;-74
2021/05/09 00:27:17;;;;;;;4.35;1.89;;;;;;;6.13;67.41;99551.00;348331;113;1961936;-73
2021/05/09 00:28:23;;;;;;;6.46;2.25;;;;;;;6.11;67.35;99545.83;308598;111;2743054;-72
2021/05/09 00:29:29;;;;;;;5.46;2.27;;;;;;;6.11;67.32;99548.52;326119;113;1962000;-72
2021/05/09 00:30:47;;;;;;;5.12;2.11;;;;;;;6.12;67.12;99552.85;346240;114;1961974;-73
2021/05/09 00:31:53;;;;;;;3.26;1.85;;;;;;;6.11;67.10;99551.20;333853;113;2283898;-75
2021/05/09 00:32:58;;;;;;;3.41;1.74;;;;;;;6.07;67.45;99547.19;331421;113;1961994;-73
2021/05/09 00:34:05;;;;;;;4.43;2.19;;;;;;;6.10;67.28;99546.83;350210;115;1961975;-73
2021/05/09 00:35:11;;;;;;;3.79;1.76;;;;;;;6.10;67.24;99546.00;350757;115;1960689;-73
2021/05/09 00:36:17;;;;;;;4.58;2.39;;;;;;;6.12;67.06;99550.17;318114;115;2907966;-72
2021/05/09 00:37:22;;;;;;;3.49;1.84;;;;;;;6.16;67.02;99556.00;324724;115;1961933;-74
2021/05/09 00:38:27;;;;;;;4.38;1.98;;;;;;;6.15;66.85;99554.34;344342;110;1961953;-74
2021/05/09 00:39:32;;;;;;;4.75;1.90;;;;;;;6.11;67.05;99558.38;344672;113;1961932;-73
2021/05/09 00:40:40;;;;;;;3.88;2.27;;;;;;;6.08;67.31;99559.58;356983;111;1961887;-73
2021/05/09 00:41:46;;;;;;;4.72;1.78;;;;;;;6.08;67.25;99556.89;311430;111;2800987;-73
2021/05/09 00:42:56;;;;;;;4.34;2.07;;;;;;;6.10;67.23;99556.73;322722;111;1961889;-73
2021/05/09 00:44:01;;;;;;;4.22;2.12;;;;;;;6.10;67.11;99554.88;344247;112;1965219;-74
2021/05/09 00:45:07;;;;;;;4.89;2.32;;;;;;;6.09;67.14;99557.75;354806;112;1961932;-72
2021/05/09 00:46:14;;;;;;;4.87;1.91;;;;;;;6.10;67.12;99557.55;354087;114;1964001;-73
2021/05/09 00:47:20;;;;;;;4.86;2.09;;;;;;;6.01;67.43;99563.18;311278;112;2799104;-71
2021/05/09 00:48:25;;;;;;;5.12;2.42;;;;;;;6.02;67.57;99559.47;347226;112;1963834;-73
2021/05/09 00:49:30;;;;;;;4.38;1.99;;;;;;;6.01;67.36;99564.01;356222;112;1961858;-72
2021/05/09 00:50:37;;;;;;;4.52;2.06;;;;;;;6.03;67.33;99564.64;350624;114;1962948;-72
2021/05/09 00:51:44;;;;;;;5.38;1.81;;;;;;;6.00;67.28;99564.17;347977;113;1961944;-72
2021/05/09 00:52:49;;;;;;;4.45;2.37;;;;;;;6.00;67.45;99572.22;292060;112;2240531;-73
2021/05/09 00:53:58;;;;;;;4.48;1.80;;;;;;;5.95;67.57;99567.37;354883;112;1963004;-72
2021/05/09 00:55:07;;;;;;;4.85;2.50;;;;;;;5.90;67.78;99567.05;312015;112;2085963;-72
2021/05/09 00:56:16;;;;;;;5.13;2.31;;;;;;;5.93;67.67;99567.58;331643;112;2223001;-71
2021/05/09 00:57:24;;;;;;;5.26;2.32;;;;;;;5.90;67.90;99573.27;356742;112;1963012;-72
2021/05/09 00:58:31;;;;;;;4.84;2.35;;;;;;;5.91;67.63;99571.42;353937;112;1961923;-71
2021/05/09 00:59:38;;;;;;;5.85;2.48;;;;;;;5.91;67.66;99566.05;356729;112;1964001;-72
2021/05/09 01:00:46;;;;;;;4.85;2.41;;;;;;;5.90;67.68;99562.55;356527;112;1961993;-72
2021/05/09 01:01:53;;;;;;;6.27;2.21;;;;;;;5.89;67.89;99565.39;323138;112;2575921;-73
2021/05/09 01:03:02;;;;;;;4.79;2.35;;;;;;;5.86;68.09;99571.94;355493;112;1964235;-72
2021/05/09 01:04:11;;;;;;;5.36;2.76;;;;;;;5.86;68.17;99568.44;355385;112;1961981;-73
2021/05/09 01:05:17;;;;;;;5.76;2.69;;;;;;;5.86;68.29;99571.11;326202;112;1961975;-72
2021/05/09 01:06:24;;;;;;;6.69;2.86;;;;;;;5.84;68.23;99568.59;352886;112;1961879;-74
2021/05/09 01:07:30;;;;;;;5.44;2.79;;;;;;;5.82;68.46;99584.05;354464;111;1962000;-72
2021/05/09 01:08:36;;;;;;;4.86;2.46;;;;;;;5.80;68.48;99577.19;327344;112;1961938;-72
2021/05/09 01:09:42;;;;;;;5.56;2.57;;;;;;;5.81;68.48;99578.85;351975;112;1964951;-72
2021/05/09 01:10:47;;;;;;;7.27;2.64;;;;;;;5.79;68.71;99580.87;356495;112;1961918;-72
2021/05/09 01:11:54;;;;;;;4.76;2.32;;;;;;;5.79;68.79;99588.91;347238;114;1962000;-73
2021/05/09 01:13:00;;;;;;;8.49;2.61;;;;;;;5.79;68.85;99587.05;317132;112;2626085;-72
2021/05/09 01:14:06;;;;;;;6.14;2.53;;;;;;;5.78;68.60;99588.08;353824;114;1961908;-72
2021/05/09 01:15:13;;;;;;;5.36;2.54;;;;;;;5.75;68.50;99583.08;354637;112;1961980;-72
2021/05/09 01:16:19;;;;;;;4.84;1.98;;;;;;;5.71;68.52;99585.26;311181;111;2781022;-72
2021/05/09 01:17:25;;;;;;;5.76;2.32;;;;;;;5.70;68.63;99580.09;355904;112;1962011;-72
2021/05/09 01:18:32;;;;;;;6.82;2.37;;;;;;;5.69;68.90;99589.16;349669;113;1961919;-72
2021/05/09 01:19:40;;;;;;;4.34;2.29;;;;;;;5.66;68.92;99595.70;332115;113;2302030;-71
2021/05/09 01:20:46;;;;;;;4.72;2.36;;;;;;;5.64;68.70;99595.03;353186;114;1962993;-72
2021/05/09 01:22:05;;;;;;;5.52;2.46;;;;;;;5.61;69.24;99589.17;321120;113;2608994;-72
2021/05/09 01:23:11;;;;;;;5.56;2.27;;;;;;;5.57;69.16;99587.87;346644;115;1963028;-72
2021/05/09 01:24:17;;;;;;;5.98;2.70;;;;;;;5.57;69.34;99593.23;303901;114;2223985;-72
2021/05/09 01:25:23;;;;;;;6.72;2.48;;;;;;;5.57;69.45;99595.91;327170;115;1962004;-72
2021/05/09 01:26:29;;;;;;;5.08;2.14;;;;;;;5.57;69.38;99596.73;347302;115;1962027;-73
2021/05/09 01:27:38;;;;;;;5.72;2.44;;;;;;;5.56;68.93;99597.76;305709;115;2813931;-71
2021/05/09 01:28:45;;;;;;;6.19;2.88;;;;;;;5.53;69.35;99602.61;347932;115;1961940;-72
2021/05/09 01:29:51;;;;;;;4.88;2.53;;;;;;;5.51;69.54;99598.27;305730;115;2774017;-72
2021/05/09 01:31:07;;;;;;;4.31;2.11;;;;;;;5.53;69.54;99605.29;316034;115;1962015;-71
2021/05/09 01:32:13;;;;;;;5.09;2.58;;;;;;;5.43;70.08;99598.31;349567;114;1962038;-72
2021/05/09 01:33:20;;;;;;;4.12;2.13;;;;;;;5.46;69.93;99611.36;347196;114;1964001;-72
2021/05/09 01:34:33;;;;;;;4.27;2.08;;;;;;;5.47;69.38;99599.63;319111;114;2233960;-72
2021/05/09 01:35:34;;;;;;;3.84;1.74;;;;;;;5.48;69.80;99603.98;345617;115;1964983;-71
2021/05/09 01:36:40;;;;;;;5.44;2.47;;;;;;;5.54;69.37;99607.81;319953;114;2463938;-72
2021/05/09 01:37:46;;;;;;;4.72;2.27;;;;;;;5.51;69.54;99603.63;340923;116;1962973;-72
2021/05/09 01:38:54;;;;;;;4.54;2.14;;;;;;;5.49;69.43;99607.50;345394;116;1960913;-72
2021/05/09 01:39:59;;;;;;;7.07;2.93;;;;;;;5.48;69.63;99606.67;350351;115;1963041;-72
2021/05/09 01:41:05;;;;;;;5.39;2.44;;;;;;;5.50;69.38;99614.52;326207;117;2313046;-72
2021/05/09 01:42:10;;;;;;;4.44;2.08;;;;;;;5.47;69.66;99607.66;326698;114;1961994;-71
2021/05/09 01:43:16;;;;;;;4.22;2.47;;;;;;;5.44;69.46;99613.37;349336;114;1961892;-72
2021/05/09 01:44:21;;;;;;;4.70;2.24;;;;;;;5.40;69.57;99619.23;348319;115;1962978;-72
2021/05/09 01:45:28;;;;;;;4.18;2.08;;;;;;;5.42;69.44;99618.06;349011;115;1963000;-71
2021/05/09 01:46:34;;;;;;;4.65;2.41;;;;;;;5.42;69.58;99617.23;326374;114;2394039;-72
2021/05/09 01:47:39;;;;;;;6.32;2.82;;;;;;;5.41;69.51;99616.40;348789;115;1962044;-72
2021/05/09 01:48:50;;;;;;;4.56;2.29;;;;;;;5.40;69.38;99620.10;345849;116;1962008;-72
2021/05/09 01:49:55;;;;;;;5.56;2.89;;;;;;;5.39;69.65;99620.26;347502;115;1961979;-72
2021/05/09 01:51:02;;;;;;;4.94;2.29;;;;;;;5.39;69.43;99618.41;349691;114;1962907;-72
2021/05/09 01:52:08;;;;;;;5.57;2.67;;;;;;;5.37;69.56;99617.77;313103;114;2619056;-72
2021/05/09 01:53:13;;;;;;;5.19;2.51;;;;;;;5.34;69.61;99619.95;318431;117;1962004;-72
2021/05/09 01:54:18;;;;;;;4.44;2.38;;;;;;;5.36;69.54;99621.44;348996;114;1962002;-72
2021/05/09 01:55:24;;;;;;;4.64;2.39;;;;;;;5.34;69.60;99622.63;349070;115;1964937;-72
2021/05/09 01:56:38;;;;;;;5.32;2.39;;;;;;;5.36;69.40;99621.44;341930;115;1963201;-73
2021/05/09 01:57:45;;;;;;;5.05;2.43;;;;;;;5.36;69.53;99620.61;349079;114;1962013;-73
2021/05/09 01:58:52;;;;;;;7.11;2.82;;;;;;;5.34;69.47;99625.30;311716;117;1961970;-72
2021/05/09 01:59:59;;;;;;;5.62;2.21;;;;;;;5.32;69.38;99621.95;348025;114;1961924;-72
2021/05/09 02:01:06;;;;;;;4.40;2.42;;;;;;;5.36;69.29;99616.08;328313;114;1962010;-73
2021/05/09 02:02:14;;;;;;;6.16;2.57;;;;;;;5.36;69.23;99623.29;342889;116;1960927;-71
2021/05/09 02:03:22;;;;;;;5.09;2.42;;;;;;;5.25;69.33;99603.91;343724;116;1962046;-72
2021/05/09 02:04:27;;;;;;;4.03;2.23;;;;;;;5.29;69.60;99623.99;349516;114;1961922;-73
2021/05/09 02:05:34;;;;;;;5.11;2.56;;;;;;;5.29;69.65;99626.67;346659;115;1962967;-72
2021/05/09 02:06:41;;;;;;;5.01;2.89;;;;;;;5.25;69.68;99625.33;348803;114;1962016;-72
2021/05/09 02:07:47;;;;;;;6.14;2.60;;;;;;;5.26;69.62;99629.67;349542;114;1962052;-72
2021/05/09 02:08:53;;;;;;;5.88;2.82;;;;;;;5.25;69.56;99628.01;346243;115;1963933;-72
2021/05/09 02:10:06;;;;;;;6.62;2.79;;;;;;;5.24;69.50;99626.35;299918;116;2838030;-72
2021/05/09 02:11:13;;;;;;;6.28;2.78;;;;;;;5.26;69.51;99631.52;346082;115;1961957;-73
2021/05/09 02:12:19;;;;;;;4.76;2.75;;;;;;;5.25;69.37;99638.72;308503;114;2703917;-72
2021/05/09 02:13:26;;;;;;;4.66;2.69;;;;;;;5.24;69.42;99641.59;350480;114;1962031;-72
2021/05/09 02:14:35;;;;;;;6.97;2.74;;;;;;;5.22;69.56;99639.07;347973;114;1961946;-73
2021/05/09 02:15:42;;;;;;;5.51;3.06;;;;;;;5.20;69.63;99641.08;348725;114;1963948;-72
2021/05/09 02:16:48;;;;;;;5.88;2.71;;;;;;;5.20;69.69;99637.57;313664;115;2607925;-73
2021/05/09 02:17:54;;;;;;;4.81;2.77;;;;;;;5.18;69.55;99639.58;346430;116;1961929;-73
2021/05/09 02:19:03;;;;;;;7.57;3.36;;;;;;;5.17;69.67;99644.11;347423;115;1962999;-72
2021/05/09 02:20:11;;;;;;;5.54;2.62;;;;;;;5.18;69.50;99643.09;348613;116;1959731;-70
2021/05/09 02:21:17;;;;;;;6.29;2.65;;;;;;;5.16;69.80;99646.94;307514;114;2747990;-72
2021/05/09 02:22:37;;;;;;;5.13;2.97;;;;;;;5.15;69.60;99643.44;348764;113;1962939;-72
2021/05/09 02:23:43;;;;;;;5.90;2.63;;;;;;;5.16;69.83;99649.62;356188;111;1963971;-72
2021/05/09 02:24:48;;;;;;;5.00;2.81;;;;;;;5.15;69.80;99647.96;357725;111;1961950;-73
2021/05/09 02:25:53;;;;;;;5.01;2.73;;;;;;;5.11;70.00;99652.83;359767;110;1962024;-72
2021/05/09 02:27:00;;;;;;;6.01;2.92;;;;;;;5.09;70.08;99654.01;355310;112;1962053;-70
2021/05/09 02:28:05;;;;;;;4.96;2.29;;;;;;;5.07;69.95;99663.03;354649;111;1962073;-72
2021/05/09 02:29:11;;;;;;;4.12;2.35;;;;;;;5.06;70.06;99664.05;318036;110;2704925;-71
2021/05/09 02:30:19;;;;;;;3.92;1.96;;;;;;;5.15;69.82;99666.70;359888;110;1962006;-72
2021/05/09 02:31:25;;;;;;;4.78;1.85;;;;;;;5.14;69.90;99662.37;359807;110;1962034;-72
2021/05/09 02:32:31;;;;;;;3.82;1.96;;;;;;;5.21;69.82;99671.36;313384;110;2817844;-72
2021/05/09 02:33:38;;;;;;;5.17;2.60;;;;;;;5.26;69.65;99666.33;361202;111;1962054;-72
2021/05/09 02:34:44;;;;;;;9.33;2.00;;;;;;;5.26;69.49;99666.33;346951;114;1961991;-74
2021/05/09 02:35:50;;;;;;;5.39;2.26;;;;;;;5.23;69.56;99678.22;307317;112;2848972;-72
2021/05/09 02:36:56;;;;;;;4.21;2.33;;;;;;;5.24;69.52;99673.73;325298;114;1961952;-72
2021/05/09 02:38:01;;;;;;;4.79;2.48;;;;;;;5.24;69.36;99673.73;359200;110;1962084;-72
2021/05/09 02:39:11;;;;;;;4.76;2.39;;;;;;;5.22;69.36;99670.38;359561;110;1961959;-73
2021/05/09 02:40:17;;;;;;;6.18;2.47;;;;;;;5.24;69.30;99677.23;359928;110;1962002;-72
2021/05/09 02:41:22;;;;;;;4.18;2.43;;;;;;;5.26;69.22;99677.88;357764;110;1961969;-72
2021/05/09 02:42:27;;;;;;;5.25;2.84;;;;;;;5.23;69.34;99675.55;359850;109;1962945;-72
2021/05/09 02:43:33;;;;;;;5.44;3.06;;;;;;;5.23;69.37;99677.39;360293;109;1961967;-72
2021/05/09 02:44:39;;;;;;;6.59;2.52;;;;;;;5.19;69.42;99676.91;327646;110;2568854;-72
2021/05/09 02:45:45;;;;;;;5.86;2.68;;;;;;;5.20;69.45;99689.28;337805;110;1961057;-72
2021/05/09 02:46:50;;;;;;;5.82;2.12;;;;;;;5.21;69.31;99685.61;361222;111;1961802;-73
2021/05/09 02:47:56;;;;;;;5.10;2.52;;;;;;;5.20;69.33;99689.28;357353;112;1960807;-72
2021/05/09 02:49:02;;;;;;;4.63;2.47;;;;;;;5.23;69.29;99688.11;355791;112;1962047;-73
2021/05/09 02:50:10;;;;;;;5.78;2.81;;;;;;;5.20;69.34;99699.16;326559;110;2569056;-72
2021/05/09 02:51:18;;;;;;;6.32;2.89;;;;;;;5.28;69.20;99691.11;361328;109;1962009;-71
2021/05/09 02:52:24;;;;;;;4.78;2.66;;;;;;;5.26;69.04;99699.30;342438;112;1961964;-72
2021/05/09 02:53:31;;;;;;;5.17;2.59;;;;;;;5.21;69.21;99696.33;362127;110;1962043;-73
2021/05/09 02:54:37;;;;;;;4.73;2.64;;;;;;;5.24;69.18;99700.51;359622;111;1962054;-72
2021/05/09 02:55:43;;;;;;;6.27;2.69;;;;;;;5.25;69.15;99699.49;320565;112;2704924;-72
2021/05/09 02:56:49;;;;;;;5.14;2.68;;;;;;;5.26;69.05;99698.47;361220;110;1961892;-72
2021/05/09 02:57:55;;;;;;;5.00;2.62;;;;;;;5.25;69.04;99708.35;357271;111;1961937;-72
2021/05/09 02:59:01;;;;;;;4.73;2.64;;;;;;;5.29;68.96;99707.02;359106;111;1962024;-73
2021/05/09 03:00:09;;;;;;;4.96;2.41;;;;;;;5.29;69.00;99712.37;359137;110;1961999;-72
2021/05/09 03:01:17;;;;;;;5.57;2.56;;;;;;;5.33;68.89;99707.50;315025;112;2078298;-72
2021/05/09 03:02:23;;;;;;;6.71;3.02;;;;;;;5.32;69.01;99711.20;354326;112;1961989;-72
2021/05/09 03:03:29;;;;;;;5.98;3.14;;;;;;;5.35;68.74;99718.06;353069;114;1962018;-72
2021/05/09 03:04:35;;;;;;;5.74;2.68;;;;;;;5.30;68.97;99713.20;356416;112;1961054;-73
2021/05/09 03:05:41;;;;;;;5.85;2.94;;;;;;;5.32;69.00;99721.91;334078;112;2452889;-72
2021/05/09 03:06:47;;;;;;;5.87;2.96;;;;;;;5.33;68.97;99714.71;362168;112;1961971;-72
2021/05/09 03:07:53;;;;;;;5.23;2.89;;;;;;;5.38;68.89;99723.07;357147;113;1961970;-72
2021/05/09 03:08:59;;;;;;;4.89;2.66;;;;;;;5.38;68.78;99723.07;357117;113;1961972;-71
2021/05/09 03:10:06;;;;;;;4.84;2.45;;;;;;;5.40;68.64;99724.57;358908;112;1963997;-72
2021/05/09 03:11:11;;;;;;;5.14;2.81;;;;;;;5.43;68.58;99729.58;339934;112;1962041;-73
2021/05/09 03:12:17;;;;;;;6.54;2.76;;;;;;;5.42;68.70;99727.06;358503;112;1960922;-72
2021/05/09 03:13:23;;;;;;;6.10;2.92;;;;;;;5.41;68.63;99736.95;359053;112;1962903;-72
2021/05/09 03:14:28;;;;;;;4.74;2.66;;;;;;;5.43;68.74;99734.11;360102;113;1965117;-71
2021/05/09 03:15:37;;;;;;;5.96;3.37;;;;;;;5.45;68.59;99737.43;359577;111;1962917;-72
2021/05/09 03:16:42;;;;;;;5.64;2.89;;;;;;;5.41;68.74;99738.80;360150;110;1964018;-71
2021/05/09 03:17:47;;;;;;;6.21;2.96;;;;;;;5.45;68.76;99740.11;359324;113;1961761;-72
2021/05/09 03:18:53;;;;;;;6.63;3.11;;;;;;;5.45;68.66;99740.11;358220;112;1961970;-72
2021/05/09 03:20:00;;;;;;;6.09;3.16;;;;;;;5.47;68.66;99738.93;308232;111;2859919;-72
2021/05/09 03:21:05;;;;;;;5.79;2.92;;;;;;;5.49;68.52;99738.77;356011;112;1962045;-74
2021/05/09 03:22:11;;;;;;;7.25;2.89;;;;;;;5.50;68.55;99743.98;354780;112;1961937;-72
2021/05/09 03:23:18;;;;;;;4.93;2.47;;;;;;;5.50;68.67;99745.80;352293;112;1961974;-72
2021/05/09 03:24:24;;;;;;;7.36;2.75;;;;;;;5.55;68.45;99750.65;334968;112;2318005;-72
2021/05/09 03:25:29;;;;;;;5.77;2.99;;;;;;;5.58;68.36;99740.41;333247;112;1961980;-72
2021/05/09 03:26:35;;;;;;;6.48;2.87;;;;;;;5.59;68.41;99741.27;356797;112;1960840;-71
2021/05/09 03:27:41;;;;;;;6.68;3.22;;;;;;;5.60;68.35;99759.01;357477;112;1961960;-72
2021/05/09 03:28:46;;;;;;;6.58;2.79;;;;;;;5.60;68.33;99754.48;357067;112;1961975;-72
2021/05/09 03:29:52;;;;;;;7.17;3.27;;;;;;;5.63;68.26;99755.98;358050;112;1961907;-73
2021/05/09 03:30:58;;;;;;;6.09;3.09;;;;;;;5.61;68.32;99757.98;309777;112;2825394;-72
2021/05/09 03:32:03;;;;;;;7.46;2.96;;;;;;;5.63;68.31;99756.81;321172;115;1961969;-71
2021/05/09 03:33:09;;;;;;;5.59;3.07;;;;;;;5.64;68.26;99754.99;356969;112;1962019;-72
2021/05/09 03:34:14;;;;;;;6.26;2.99;;;;;;;5.66;68.15;99753.81;357363;112;1964010;-72
2021/05/09 03:35:21;;;;;;;6.03;3.00;;;;;;;5.67;68.00;99770.72;359604;112;1961971;-71
2021/05/09 03:36:28;;;;;;;6.54;3.16;;;;;;;5.68;68.11;99753.62;317865;111;2661075;-72
2021/05/09 03:37:33;;;;;;;5.99;3.29;;;;;;;5.76;67.87;99758.13;334792;112;1961914;-73
2021/05/09 03:38:39;;;;;;;12.42;3.67;;;;;;;5.78;67.82;99766.84;357213;111;1961981;-73
2021/05/09 03:39:44;;;;;;;5.92;2.93;;;;;;;5.78;67.74;99759.63;358647;113;1961976;-73
2021/05/09 03:40:50;;;;;;;5.82;3.27;;;;;;;5.81;67.70;99770.00;358625;112;1962921;-72
2021/05/09 03:41:55;;;;;;;6.10;2.91;;;;;;;5.82;67.67;99771.69;360351;112;1962005;-73
2021/05/09 03:43:12;;;;;;;5.65;2.96;;;;;;;5.85;67.62;99768.66;358198;110;1961925;-72
2021/05/09 03:44:17;;;;;;;6.74;2.89;;;;;;;5.93;67.29;99773.16;302156;108;2145345;-72
2021/05/09 03:45:22;;;;;;;6.49;3.46;;;;;;;5.98;67.13;99762.78;336455;113;1961974;-73
2021/05/09 03:46:28;;;;;;;6.83;3.14;;;;;;;5.91;67.30;99767.13;353692;112;1962969;-73
2021/05/09 03:47:35;;;;;;;6.14;2.68;;;;;;;5.88;67.54;99779.03;351470;112;1962002;-72
2021/05/09 03:48:41;;;;;;;6.00;2.92;;;;;;;5.90;67.51;99771.66;348327;113;1960935;-72
2021/05/09 03:49:47;;;;;;;6.85;2.97;;;;;;;5.90;67.43;99771.66;341706;113;2890008;-73
2021/05/09 03:50:52;;;;;;;5.44;2.91;;;;;;;5.91;67.45;99764.45;311169;113;1966037;-72
2021/05/09 03:51:57;;;;;;;5.73;3.11;;;;;;;5.92;67.50;99766.11;323893;113;1961874;-72
2021/05/09 03:53:03;;;;;;;8.03;2.81;;;;;;;5.96;67.38;99772.02;328427;113;1961986;-73
2021/05/09 03:54:08;;;;;;;6.01;3.36;;;;;;;5.91;67.52;99770.64;335275;113;1964029;-73
2021/05/09 03:55:14;;;;;;;5.94;3.09;;;;;;;5.94;67.46;99780.21;349541;113;1962105;-73
2021/05/09 03:56:19;;;;;;;5.52;3.06;;;;;;;6.00;67.35;99776.00;348998;114;1963992;-72
2021/05/09 03:57:24;;;;;;;6.98;3.25;;;;;;;6.02;67.21;99776.67;347324;113;1963021;-73
2021/05/09 03:58:30;;;;;;;7.19;3.14;;;;;;;6.06;67.18;99780.66;347607;113;1963975;-71
2021/05/09 03:59:35;;;;;;;5.22;2.87;;;;;;;6.06;67.07;99780.66;348616;113;1961917;-72
2021/05/09 04:00:41;;;;;;;5.47;2.94;;;;;;;6.03;67.30;99783.69;347698;113;1962009;-73
2021/05/09 04:01:46;;;;;;;5.62;2.90;;;;;;;6.10;67.04;99782.00;348498;113;1961814;-73
2021/05/09 04:02:52;;;;;;;5.77;2.88;;;;;;;6.14;66.86;99778.80;348365;113;1961978;-72
2021/05/09 04:03:58;;;;;;;6.85;3.57;;;;;;;6.13;67.03;99797.73;315815;113;2590015;-73
2021/05/09 04:05:04;;;;;;;6.73;3.29;;;;;;;6.14;66.87;99788.70;320691;113;1962088;-73
2021/05/09 04:06:10;;;;;;;7.95;3.68;;;;;;;6.20;67.01;99792.52;346736;113;1962948;-73
2021/05/09 04:07:15;;;;;;;5.93;3.39;;;;;;;6.27;66.53;99783.61;348186;113;1961882;-72
2021/05/09 04:08:25;;;;;;;6.25;3.24;;;;;;;6.31;66.55;99784.91;347335;113;1962066;-73
2021/05/09 04:09:30;;;;;;;5.25;2.93;;;;;;;6.21;66.84;99788.81;347287;106;1962021;-73
2021/05/09 04:10:38;;;;;;;6.19;3.13;;;;;;;6.23;66.63;99789.48;344275;115;1961926;-71
2021/05/09 04:11:43;;;;;;;6.28;2.77;;;;;;;6.24;66.57;99791.98;335968;115;2948988;-72
2021/05/09 04:12:48;;;;;;;5.69;3.37;;;;;;;6.35;66.35;99791.61;355622;105;2891090;-72
2021/05/09 04:13:54;;;;;;;5.22;2.98;;;;;;;6.37;66.18;99789.56;329565;106;2671020;-72
2021/05/09 04:15:00;;;;;;;6.84;3.12;;;;;;;6.42;66.21;99790.90;342195;108;1962082;-72
2021/05/09 04:16:05;;;;;;;7.04;3.68;;;;;;;6.42;66.03;99789.05;357205;107;1961937;-72
2021/05/09 04:17:10;;;;;;;5.96;3.23;;;;;;;6.45;65.99;99790.54;364458;108;1966001;-72
2021/05/09 04:18:17;;;;;;;5.92;2.89;;;;;;;6.45;65.91;99782.49;370315;106;1964948;-73
2021/05/09 04:19:22;;;;;;;6.14;3.12;;;;;;;6.53;65.91;99795.86;368997;108;1962895;-73
2021/05/09 04:20:29;;;;;;;6.07;3.02;;;;;;;6.52;65.99;99786.98;370640;106;1961928;-73
2021/05/09 04:21:35;;;;;;;6.17;3.17;;;;;;;6.58;65.93;99804.22;359942;107;2879010;-73
2021/05/09 04:22:41;;;;;;;5.99;3.09;;;;;;;6.63;65.72;99796.47;342751;108;1961959;-73
2021/05/09 04:23:46;;;;;;;7.44;3.42;;;;;;;6.68;65.77;99799.47;361161;106;1962894;-73
2021/05/09 04:24:52;;;;;;;6.43;3.46;;;;;;;6.65;65.91;99797.14;368915;108;1963943;-73
2021/05/09 04:25:57;;;;;;;5.93;2.89;;;;;;;6.71;65.68;99803.64;366916;107;1962031;-73
2021/05/09 04:27:03;;;;;;;8.97;3.99;;;;;;;6.76;65.53;99804.78;368327;106;1962018;-72
2021/05/09 04:28:09;;;;;;;6.31;3.24;;;;;;;6.75;65.57;99803.12;353268;111;1962971;-74
2021/05/09 04:29:16;;;;;;;6.02;3.44;;;;;;;6.82;65.31;99804.06;351541;114;1962044;-72
2021/05/09 04:30:24;;;;;;;7.61;3.01;;;;;;;6.74;64.84;99812.17;352199;112;1963071;-73
2021/05/09 04:31:31;;;;;;;8.37;3.32;;;;;;;6.83;65.07;99804.92;351796;114;1960909;-72
2021/05/09 04:32:36;;;;;;;5.53;3.07;;;;;;;6.88;65.02;99809.73;321180;114;2545174;-73
2021/05/09 04:33:42;;;;;;;6.64;2.97;;;;;;;6.94;64.83;99817.92;340886;112;1961890;-72
2021/05/09 04:34:48;;;;;;;8.69;3.10;;;;;;;6.96;64.61;99810.53;352681;113;1961958;-72
2021/05/09 04:35:54;;;;;;;6.56;3.03;;;;;;;6.96;64.67;99813.22;352148;113;1961976;-72
2021/05/09 04:36:59;;;;;;;5.95;3.18;;;;;;;7.00;64.29;99822.57;351098;114;1961985;-72
2021/05/09 04:38:06;;;;;;;5.55;3.00;;;;;;;7.04;64.23;99810.47;351040;114;1961987;-72
2021/05/09 04:39:12;;;;;;;6.33;3.52;;;;;;;7.09;64.20;99817.96;303058;114;2885932;-72
2021/05/09 04:40:19;;;;;;;7.70;3.54;;;;;;;7.12;64.00;99820.31;352247;114;1962045;-73
2021/05/09 04:41:25;;;;;;;7.02;3.21;;;;;;;7.14;63.80;99815.58;352499;113;1962041;-72
2021/05/09 04:42:30;;;;;;;6.74;3.13;;;;;;;7.19;63.71;99821.24;350806;112;1961972;-73
2021/05/09 04:43:38;;;;;;;6.13;3.27;;;;;;;7.23;63.82;99822.57;352791;112;1961919;-72
2021/05/09 04:44:43;;;;;;;6.92;3.37;;;;;;;7.28;63.72;99822.04;350641;114;1963976;-72
2021/05/09 04:45:52;;;;;;;6.01;3.24;;;;;;;7.33;63.45;99832.22;352698;112;1961048;-73
2021/05/09 04:46:57;;;;;;;6.14;3.48;;;;;;;6.82;63.32;99738.78;328830;114;2353023;-73
2021/05/09 04:48:05;;;;;;;6.57;3.00;;;;;;;7.43;63.40;99833.64;326738;114;1962065;-72
2021/05/09 04:49:10;;;;;;;6.82;3.17;;;;;;;7.42;63.03;99833.84;352158;114;1962028;-73
2021/05/09 04:50:18;;;;;;;5.91;3.14;;;;;;;7.47;62.96;99848.41;319555;110;2891779;-73
2021/05/09 04:51:23;;;;;;;5.31;2.86;;;;;;;7.49;62.85;99842.86;324091;111;1960771;-72
2021/05/09 04:52:28;;;;;;;6.92;3.88;;;;;;;7.56;62.56;99854.53;331413;112;1960770;-72
2021/05/09 04:53:37;;;;;;;7.27;3.29;;;;;;;7.64;62.38;99848.25;353005;110;1960704;-72
2021/05/09 04:54:43;;;;;;;5.98;3.78;;;;;;;7.67;62.10;99854.11;308731;110;2835788;-72
2021/05/09 04:55:49;;;;;;;7.64;3.91;;;;;;;7.73;62.20;99854.38;324494;112;1960887;-72
2021/05/09 04:56:54;;;;;;;6.51;3.26;;;;;;;7.76;62.01;99851.34;342568;112;1960677;-72
2021/05/09 04:58:00;;;;;;;6.23;2.66;;;;;;;7.80;61.91;99858.84;352747;112;1960849;-72
2021/05/09 04:59:05;;;;;;;5.61;2.74;;;;;;;7.80;61.52;99860.70;351398;114;1961886;-73
2021/05/09 05:00:16;;;;;;;6.82;3.54;;;;;;;7.85;61.31;99853.75;353428;112;1960780;-73
2021/05/09 05:01:19;;;;;;;5.36;2.52;;;;;;;7.92;61.21;99861.94;352365;113;1960873;-73
2021/05/09 05:02:25;;;;;;;5.01;2.59;;;;;;;8.05;60.46;99856.75;351028;114;1964928;-73
2021/05/09 05:03:32;;;;;;;5.62;2.92;;;;;;;8.00;60.85;99855.64;350512;112;1961979;-73
2021/05/09 05:04:38;;;;;;;5.93;2.91;;;;;;;8.03;60.96;99858.78;287884;112;2243034;-73
2021/05/09 05:05:44;;;;;;;6.21;2.96;;;;;;;8.11;60.80;99860.55;325937;114;1962008;-73
2021/05/09 05:06:49;;;;;;;6.79;2.82;;;;;;;8.18;60.65;99860.62;341867;112;1961952;-72
2021/05/09 05:07:54;;;;;;;5.62;2.69;;;;;;;8.22;60.46;99862.77;344173;112;1962019;-72
2021/05/09 05:09:00;;;;;;;5.08;2.79;;;;;;;8.19;59.34;99865.01;346793;114;1961899;-72